createdAt,value
2018-01-16T00:00:30.146Z,0
2018-01-16T00:01:38.676Z,0
2018-01-16T00:02:47.476Z,0
2018-01-16T00:03:56.278Z,0
2018-01-16T00:05:04.814Z,0
2018-01-16T00:06:13.608Z,0
2018-01-16T00:07:22.499Z,0
2018-01-16T00:08:31.294Z,0
2018-01-16T00:09:39.826Z,0
2018-01-16T00:10:48.627Z,0
2018-01-16T00:11:57.697Z,0
2018-01-16T00:13:06.493Z,0
2018-01-16T00:14:15.285Z,0
2018-01-16T00:15:24.074Z,0
2018-01-16T00:16:32.869Z,0
2018-01-16T00:17:41.400Z,0
2018-01-16T00:18:50.196Z,0
2018-01-16T00:19:59.258Z,0
2018-01-16T00:21:08.046Z,0
2018-01-16T00:22:16.579Z,0
2018-01-16T00:23:25.374Z,0
2018-01-16T00:24:34.431Z,0
2018-01-16T00:25:43.223Z,0
2018-01-16T00:26:51.750Z,0
2018-01-16T00:28:00.808Z,0
2018-01-16T00:29:09.337Z,0
2018-01-16T00:30:17.866Z,0
2018-01-16T00:31:26.660Z,0
2018-01-16T00:32:35.452Z,0
2018-01-16T00:33:44.249Z,0
2018-01-16T00:34:52.782Z,0
2018-01-16T00:36:01.831Z,0
2018-01-16T00:37:10.622Z,0
2018-01-16T00:38:19.154Z,0
2018-01-16T00:39:28.205Z,0
2018-01-16T00:40:36.734Z,0
2018-01-16T00:41:45.525Z,0
2018-01-16T00:42:54.587Z,0
2018-01-16T00:44:03.653Z,0
2018-01-16T00:45:12.445Z,0
2018-01-16T00:46:20.976Z,0
2018-01-16T00:47:30.034Z,0
2018-01-16T00:48:38.829Z,0
2018-01-16T00:49:47.621Z,0
2018-01-16T00:50:56.417Z,0
2018-01-16T00:52:04.948Z,0
2018-01-16T00:53:13.740Z,0
2018-01-16T00:54:22.269Z,0
2018-01-16T00:55:31.061Z,0
2018-01-16T00:56:39.850Z,0
2018-01-16T00:57:48.376Z,0
2018-01-16T00:58:57.169Z,0
2018-01-16T01:00:06.235Z,0
2018-01-16T01:01:14.761Z,0
2018-01-16T01:02:23.288Z,0
2018-01-16T01:03:31.820Z,0
2018-01-16T01:04:40.348Z,0
2018-01-16T01:05:49.141Z,0
2018-01-16T01:06:57.984Z,0
2018-01-16T01:08:06.510Z,0
2018-01-16T01:09:15.037Z,0
2018-01-16T01:10:23.831Z,0
2018-01-16T01:11:32.890Z,0
2018-01-16T01:12:41.687Z,0
2018-01-16T01:13:50.484Z,0
2018-01-16T01:14:59.545Z,0
2018-01-16T01:16:08.606Z,0
2018-01-16T01:17:17.133Z,0
2018-01-16T01:18:25.925Z,0
2018-01-16T01:19:34.454Z,0
2018-01-16T01:20:43.250Z,0
2018-01-16T01:21:51.776Z,0
2018-01-16T01:23:00.835Z,0
2018-01-16T01:24:09.626Z,0
2018-01-16T01:25:18.418Z,0
2018-01-16T01:26:27.208Z,0
2018-01-16T01:27:35.735Z,0
2018-01-16T01:28:44.262Z,0
2018-01-16T01:29:52.790Z,0
2018-01-16T01:31:01.582Z,0
2018-01-16T01:32:10.374Z,0
2018-01-16T01:33:19.430Z,0
2018-01-16T01:34:27.959Z,0
2018-01-16T01:35:36.755Z,0
2018-01-16T01:36:45.549Z,0
2018-01-16T01:37:54.343Z,0
2018-01-16T01:39:03.134Z,0
2018-01-16T01:40:11.930Z,0
2018-01-16T01:41:20.456Z,0
2018-01-16T01:42:29.249Z,0
2018-01-16T01:43:38.309Z,0
2018-01-16T01:44:46.845Z,0
2018-01-16T01:45:55.369Z,0
2018-01-16T01:47:03.899Z,0
2018-01-16T01:48:12.959Z,0
2018-01-16T01:49:21.487Z,0
2018-01-16T01:50:30.280Z,0
2018-01-16T01:51:39.137Z,0
2018-01-16T01:52:47.931Z,0
2018-01-16T01:53:56.996Z,0
2018-01-16T01:55:05.796Z,0
2018-01-16T01:56:15.117Z,0
2018-01-16T01:57:24.179Z,0
2018-01-16T01:58:32.973Z,0
2018-01-16T01:59:41.506Z,0
2018-01-16T02:00:50.565Z,0
2018-01-16T02:01:59.096Z,0
2018-01-16T02:03:07.891Z,0
2018-01-16T02:04:16.684Z,0
2018-01-16T02:05:25.476Z,0
2018-01-16T02:06:34.530Z,0
2018-01-16T02:07:43.325Z,0
2018-01-16T02:08:51.858Z,0
2018-01-16T02:10:00.914Z,0
2018-01-16T02:11:09.707Z,0
2018-01-16T02:12:18.763Z,0
2018-01-16T02:13:27.290Z,0
2018-01-16T02:14:36.086Z,0
2018-01-16T02:15:45.156Z,0
2018-01-16T02:16:54.210Z,0
2018-01-16T02:18:03.003Z,0
2018-01-16T02:19:11.796Z,0
2018-01-16T02:20:20.324Z,0
2018-01-16T02:21:29.379Z,0
2018-01-16T02:22:38.439Z,0
2018-01-16T02:23:46.968Z,0
2018-01-16T02:24:55.813Z,0
2018-01-16T02:26:04.343Z,0
2018-01-16T02:27:12.869Z,0
2018-01-16T02:28:23.142Z,0
2018-01-16T02:29:32.566Z,0
2018-01-16T02:30:41.548Z,0
2018-01-16T02:31:50.291Z,0
2018-01-16T02:32:59.564Z,0
2018-01-16T02:34:08.807Z,0
2018-01-16T02:35:17.998Z,0
2018-01-16T02:36:27.581Z,0
2018-01-16T02:37:36.394Z,0
2018-01-16T02:38:45.282Z,0
2018-01-16T02:39:54.076Z,0
2018-01-16T02:41:03.144Z,0
2018-01-16T02:42:12.476Z,0
2018-01-16T02:43:21.537Z,0
2018-01-16T02:44:30.063Z,0
2018-01-16T02:45:38.624Z,0
2018-01-16T02:46:47.686Z,0
2018-01-16T02:47:56.479Z,0
2018-01-16T02:49:05.273Z,0
2018-01-16T02:50:14.068Z,0
2018-01-16T02:51:22.863Z,0
2018-01-16T02:52:31.390Z,0
2018-01-16T02:53:39.918Z,0
2018-01-16T02:54:48.712Z,0
2018-01-16T02:55:57.236Z,0
2018-01-16T02:57:05.762Z,0
2018-01-16T02:58:14.828Z,0
2018-01-16T02:59:23.624Z,0
2018-01-16T03:00:32.154Z,0
2018-01-16T03:01:40.944Z,0
2018-01-16T03:02:49.469Z,0
2018-01-16T03:03:58.530Z,0
2018-01-16T03:05:07.060Z,0
2018-01-16T03:06:15.855Z,0
2018-01-16T03:07:24.918Z,0
2018-01-16T03:08:33.708Z,0
2018-01-16T03:09:42.235Z,0
2018-01-16T03:10:50.761Z,0
2018-01-16T03:11:59.549Z,0
2018-01-16T03:13:08.077Z,0
2018-01-16T03:14:16.869Z,0
2018-01-16T03:15:25.661Z,0
2018-01-16T03:16:34.189Z,0
2018-01-16T03:17:43.248Z,0
2018-01-16T03:18:51.776Z,0
2018-01-16T03:20:00.572Z,0
2018-01-16T03:21:09.361Z,0
2018-01-16T03:22:18.161Z,0
2018-01-16T03:23:26.955Z,0
2018-01-16T03:24:35.746Z,0
2018-01-16T03:25:44.538Z,0
2018-01-16T03:26:53.068Z,0
2018-01-16T03:28:02.131Z,0
2018-01-16T03:29:10.976Z,0
2018-01-16T03:30:19.769Z,0
2018-01-16T03:31:28.566Z,0
2018-01-16T03:32:37.627Z,0
2018-01-16T03:33:46.417Z,0
2018-01-16T03:34:55.209Z,0
2018-01-16T03:36:04.002Z,0
2018-01-16T03:37:12.532Z,0
2018-01-16T03:38:21.057Z,0
2018-01-16T03:39:29.858Z,0
2018-01-16T03:40:38.383Z,0
2018-01-16T03:41:47.179Z,0
2018-01-16T03:42:56.248Z,0
2018-01-16T03:44:05.044Z,0
2018-01-16T03:45:14.103Z,0
2018-01-16T03:46:22.635Z,0
2018-01-16T03:47:31.424Z,0
2018-01-16T03:48:40.236Z,0
2018-01-16T03:49:49.033Z,0
2018-01-16T03:50:57.826Z,0
2018-01-16T03:52:06.884Z,0
2018-01-16T03:53:15.938Z,0
2018-01-16T03:54:24.468Z,0
2018-01-16T03:55:33.534Z,0
2018-01-16T03:56:42.591Z,0
2018-01-16T03:57:51.384Z,0
2018-01-16T03:59:00.447Z,0
2018-01-16T04:00:09.243Z,0
2018-01-16T04:01:18.039Z,0
2018-01-16T04:02:26.564Z,0
2018-01-16T04:03:35.358Z,0
2018-01-16T04:04:44.150Z,0
2018-01-16T04:05:52.678Z,0
2018-01-16T04:07:01.755Z,0
2018-01-16T04:08:10.284Z,0
2018-01-16T04:09:19.076Z,0
2018-01-16T04:10:27.869Z,0
2018-01-16T04:11:36.674Z,0
2018-01-16T04:12:45.726Z,0
2018-01-16T04:13:54.253Z,0
2018-01-16T04:15:03.051Z,0
2018-01-16T04:16:11.844Z,0
2018-01-16T04:17:20.914Z,0
2018-01-16T04:18:29.966Z,0
2018-01-16T04:19:38.760Z,0
2018-01-16T04:20:47.553Z,0
2018-01-16T04:21:56.616Z,0
2018-01-16T04:23:05.411Z,0
2018-01-16T04:24:14.202Z,0
2018-01-16T04:25:22.992Z,0
2018-01-16T04:26:31.519Z,0
2018-01-16T04:27:40.310Z,0
2018-01-16T04:28:49.099Z,0
2018-01-16T04:29:57.627Z,0
2018-01-16T04:31:06.154Z,0
2018-01-16T04:32:15.214Z,0
2018-01-16T04:33:24.015Z,0
2018-01-16T04:34:32.542Z,0
2018-01-16T04:35:41.593Z,0
2018-01-16T04:36:50.659Z,0
2018-01-16T04:37:59.719Z,0
2018-01-16T04:39:08.248Z,0
2018-01-16T04:40:17.040Z,0
2018-01-16T04:41:25.839Z,0
2018-01-16T04:42:34.631Z,0
2018-01-16T04:43:43.421Z,0
2018-01-16T04:44:52.210Z,0
2018-01-16T04:46:01.000Z,0
2018-01-16T04:47:09.525Z,0
2018-01-16T04:48:18.053Z,0
2018-01-16T04:49:26.581Z,0
2018-01-16T04:50:35.106Z,0
2018-01-16T04:51:43.897Z,0
2018-01-16T04:52:52.693Z,0
2018-01-16T04:54:01.754Z,0
2018-01-16T04:55:10.545Z,0
2018-01-16T04:56:19.333Z,0
2018-01-16T04:57:28.389Z,0
2018-01-16T04:58:37.184Z,0
2018-01-16T04:59:45.713Z,0
2018-01-16T05:00:54.238Z,0
2018-01-16T05:02:02.765Z,0
2018-01-16T05:03:11.293Z,0
2018-01-16T05:04:20.348Z,0
2018-01-16T05:05:28.878Z,0
2018-01-16T05:06:37.409Z,0
2018-01-16T05:07:45.935Z,0
2018-01-16T05:08:54.464Z,0
2018-01-16T05:10:02.993Z,0
2018-01-16T05:11:12.059Z,0
2018-01-16T05:12:21.121Z,0
2018-01-16T05:13:29.915Z,0
2018-01-16T05:14:38.440Z,0
2018-01-16T05:15:47.227Z,0
2018-01-16T05:16:55.755Z,0
2018-01-16T05:18:04.564Z,0
2018-01-16T05:19:13.631Z,0
2018-01-16T05:20:22.417Z,0
2018-01-16T05:21:30.945Z,0
2018-01-16T05:22:39.472Z,0
2018-01-16T05:23:48.575Z,0
2018-01-16T05:24:57.365Z,0
2018-01-16T05:26:05.894Z,0
2018-01-16T05:27:14.423Z,0
2018-01-16T05:28:22.950Z,0
2018-01-16T05:29:31.743Z,0
2018-01-16T05:30:40.540Z,0
2018-01-16T05:31:49.353Z,0
2018-01-16T05:32:58.398Z,0
2018-01-16T05:34:07.190Z,0
2018-01-16T05:35:15.719Z,0
2018-01-16T05:36:24.513Z,0
2018-01-16T05:37:33.044Z,0
2018-01-16T05:38:41.834Z,0
2018-01-16T05:39:50.624Z,0
2018-01-16T05:40:59.160Z,0
2018-01-16T05:42:07.748Z,0
2018-01-16T05:43:16.295Z,0
2018-01-16T05:44:25.090Z,0
2018-01-16T05:45:33.880Z,0
2018-01-16T05:46:42.437Z,0
2018-01-16T05:47:51.200Z,0
2018-01-16T05:49:00.015Z,0
2018-01-16T05:50:08.877Z,0
2018-01-16T05:51:17.942Z,0
2018-01-16T05:52:26.478Z,0
2018-01-16T05:53:35.588Z,0
2018-01-16T05:54:44.126Z,0
2018-01-16T05:55:53.207Z,0
2018-01-16T05:57:02.030Z,0
2018-01-16T05:58:10.863Z,0
2018-01-16T05:59:19.773Z,0
2018-01-16T06:00:28.585Z,0
2018-01-16T06:01:37.390Z,0
2018-01-16T06:02:46.189Z,0
2018-01-16T06:03:54.756Z,0
2018-01-16T06:05:03.647Z,0
2018-01-16T06:06:12.439Z,0
2018-01-16T06:07:21.237Z,0
2018-01-16T06:08:29.784Z,0
2018-01-16T06:09:38.935Z,0
2018-01-16T06:10:47.562Z,0
2018-01-16T06:11:56.627Z,0
2018-01-16T06:13:05.461Z,0
2018-01-16T06:14:14.796Z,0
2018-01-16T06:15:23.350Z,0
2018-01-16T06:16:31.917Z,0
2018-01-16T06:17:40.726Z,0
2018-01-16T06:18:49.323Z,0
2018-01-16T06:19:58.159Z,0
2018-01-16T06:21:06.702Z,0
2018-01-16T06:22:15.530Z,0
2018-01-16T06:23:24.071Z,0
2018-01-16T06:24:32.891Z,0
2018-01-16T06:25:41.711Z,0
2018-01-16T06:26:50.814Z,0
2018-01-16T06:27:59.410Z,0
2018-01-16T06:29:08.214Z,0
2018-01-16T06:30:17.013Z,0
2018-01-16T06:31:25.616Z,0
2018-01-16T06:32:34.722Z,0
2018-01-16T06:33:43.592Z,0
2018-01-16T06:34:52.127Z,0
2018-01-16T06:36:01.216Z,0
2018-01-16T06:37:10.019Z,0
2018-01-16T06:38:19.397Z,0
2018-01-16T06:39:28.754Z,0
2018-01-16T06:40:37.889Z,0
2018-01-16T06:41:47.249Z,0
2018-01-16T06:42:56.097Z,0
2018-01-16T06:44:04.656Z,0
2018-01-16T06:45:13.199Z,0
2018-01-16T06:46:22.028Z,0
2018-01-16T06:47:30.607Z,0
2018-01-16T06:48:39.139Z,0
2018-01-16T06:49:47.680Z,0
2018-01-16T06:50:56.504Z,0
2018-01-16T06:52:05.595Z,0
2018-01-16T06:53:14.134Z,0
2018-01-16T06:54:22.954Z,0
2018-01-16T06:55:32.016Z,0
2018-01-16T06:56:41.083Z,0
2018-01-16T06:57:49.626Z,0
2018-01-16T06:58:58.992Z,0
2018-01-16T07:00:09.642Z,0
2018-01-16T07:01:18.470Z,0
2018-01-16T07:02:27.287Z,0
2018-01-16T07:03:36.405Z,0
2018-01-16T07:04:44.929Z,0
2018-01-16T07:05:53.455Z,0
2018-01-16T07:07:02.244Z,0
2018-01-16T07:08:11.310Z,0
2018-01-16T07:09:20.364Z,0
2018-01-16T07:10:29.156Z,0
2018-01-16T07:11:37.997Z,0
2018-01-16T07:12:47.330Z,0
2018-01-16T07:13:56.122Z,0
2018-01-16T07:15:04.648Z,0
2018-01-16T07:16:13.178Z,0
2018-01-16T07:17:21.702Z,0
2018-01-16T07:18:30.231Z,0
2018-01-16T07:19:39.286Z,0
2018-01-16T07:20:48.076Z,0
2018-01-16T07:21:56.865Z,0
2018-01-16T07:23:05.395Z,0
2018-01-16T07:24:14.186Z,0
2018-01-16T07:25:22.980Z,0
2018-01-16T07:26:31.505Z,0
2018-01-16T07:27:40.036Z,0
2018-01-16T07:28:49.356Z,0
2018-01-16T07:29:57.881Z,0
2018-01-16T07:31:06.410Z,0
2018-01-16T07:32:15.206Z,0
2018-01-16T07:33:23.996Z,0
2018-01-16T07:34:33.054Z,0
2018-01-16T07:35:42.111Z,0
2018-01-16T07:36:50.639Z,0
2018-01-16T07:37:59.168Z,0
2018-01-16T07:39:08.305Z,0
2018-01-16T07:40:17.097Z,5
2018-01-16T07:41:25.624Z,10
2018-01-16T07:42:34.149Z,10
2018-01-16T07:43:42.942Z,10
2018-01-16T07:44:52.006Z,5
2018-01-16T07:46:01.062Z,5
2018-01-16T07:47:09.593Z,5
2018-01-16T07:48:18.116Z,5
2018-01-16T07:49:26.904Z,5
2018-01-16T07:50:35.693Z,10
2018-01-16T07:51:44.491Z,10
2018-01-16T07:52:53.017Z,15
2018-01-16T07:54:01.806Z,15
2018-01-16T07:55:10.600Z,15
2018-01-16T07:56:19.394Z,15
2018-01-16T07:57:28.446Z,10
2018-01-16T07:58:36.979Z,15
2018-01-16T07:59:45.772Z,15
2018-01-16T08:00:54.299Z,15
2018-01-16T08:02:03.092Z,20
2018-01-16T08:03:11.621Z,25
2018-01-16T08:04:20.151Z,35
2018-01-16T08:05:28.689Z,30
2018-01-16T08:06:37.754Z,35
2018-01-16T08:07:46.281Z,40
2018-01-16T08:08:55.073Z,40
2018-01-16T08:10:04.129Z,35
2018-01-16T08:11:13.184Z,45
2018-01-16T08:12:21.709Z,40
2018-01-16T08:13:30.505Z,45
2018-01-16T08:14:39.560Z,45
2018-01-16T08:15:48.090Z,45
2018-01-16T08:16:56.659Z,40
2018-01-16T08:18:05.676Z,45
2018-01-16T08:19:14.468Z,30
2018-01-16T08:20:22.996Z,35
2018-01-16T08:21:31.521Z,35
2018-01-16T08:22:40.317Z,35
2018-01-16T08:23:48.844Z,30
2018-01-16T08:24:57.643Z,45
2018-01-16T08:26:06.449Z,30
2018-01-16T08:27:14.992Z,40
2018-01-16T08:28:23.536Z,45
2018-01-16T08:29:32.361Z,55
2018-01-16T08:30:41.173Z,60
2018-01-16T08:31:49.855Z,80
2018-01-16T08:32:58.838Z,55
2018-01-16T08:34:07.373Z,45
2018-01-16T08:35:15.976Z,70
2018-01-16T08:36:24.554Z,85
2018-01-16T08:37:33.375Z,120
2018-01-16T08:38:42.042Z,90
2018-01-16T08:39:50.586Z,90
2018-01-16T08:40:59.752Z,85
2018-01-16T08:42:08.470Z,90
2018-01-16T08:43:17.530Z,70
2018-01-16T08:44:26.324Z,80
2018-01-16T08:45:34.851Z,70
2018-01-16T08:46:43.380Z,75
2018-01-16T08:47:51.904Z,65
2018-01-16T08:49:00.959Z,60
2018-01-16T08:50:09.487Z,75
2018-01-16T08:51:18.608Z,125
2018-01-16T08:52:27.122Z,130
2018-01-16T08:53:35.653Z,95
2018-01-16T08:54:44.216Z,90
2018-01-16T08:55:52.744Z,100
2018-01-16T08:57:01.273Z,115
2018-01-16T08:58:10.072Z,110
2018-01-16T08:59:18.865Z,120
2018-01-16T09:00:27.391Z,115
2018-01-16T09:01:35.920Z,140
2018-01-16T09:02:44.446Z,130
2018-01-16T09:03:53.764Z,55
2018-01-16T09:05:02.292Z,25
2018-01-16T09:06:10.825Z,20
2018-01-16T09:07:19.621Z,15
2018-01-16T09:08:28.415Z,10
2018-01-16T09:09:36.946Z,5
2018-01-16T09:10:46.266Z,5
2018-01-16T09:11:54.798Z,5
2018-01-16T09:13:04.119Z,5
2018-01-16T09:14:12.651Z,5
2018-01-16T09:15:21.708Z,5
2018-01-16T09:16:30.241Z,5
2018-01-16T09:17:39.029Z,5
2018-01-16T09:18:47.819Z,5
2018-01-16T09:19:56.347Z,10
2018-01-16T09:21:05.142Z,15
2018-01-16T09:22:14.201Z,20
2018-01-16T09:23:23.410Z,35
2018-01-16T09:24:31.938Z,55
2018-01-16T09:25:40.467Z,45
2018-01-16T09:26:49.463Z,45
2018-01-16T09:27:58.522Z,40
2018-01-16T09:29:07.582Z,35
2018-01-16T09:30:16.114Z,35
2018-01-16T09:31:25.169Z,45
2018-01-16T09:32:33.701Z,55
2018-01-16T09:33:42.662Z,60
2018-01-16T09:34:51.459Z,65
2018-01-16T09:36:00.514Z,65
2018-01-16T09:37:09.305Z,65
2018-01-16T09:38:18.095Z,60
2018-01-16T09:39:26.886Z,60
2018-01-16T09:40:35.685Z,60
2018-01-16T09:41:44.213Z,65
2018-01-16T09:42:53.054Z,65
2018-01-16T09:44:01.589Z,70
2018-01-16T09:45:10.384Z,75
2018-01-16T09:46:19.175Z,70
2018-01-16T09:47:27.969Z,65
2018-01-16T09:48:36.757Z,65
2018-01-16T09:49:45.551Z,75
2018-01-16T09:50:54.340Z,85
2018-01-16T09:52:03.874Z,85
2018-01-16T09:53:12.664Z,85
2018-01-16T09:54:21.187Z,85
2018-01-16T09:55:30.516Z,95
2018-01-16T09:56:39.053Z,105
2018-01-16T09:57:47.593Z,120
2018-01-16T09:58:56.661Z,150
2018-01-16T10:00:05.816Z,145
2018-01-16T10:01:14.354Z,140
2018-01-16T10:02:22.939Z,135
2018-01-16T10:03:31.428Z,120
2018-01-16T10:04:39.960Z,115
2018-01-16T10:05:48.779Z,110
2018-01-16T10:06:57.315Z,110
2018-01-16T10:08:05.848Z,110
2018-01-16T10:09:14.906Z,115
2018-01-16T10:10:23.697Z,120
2018-01-16T10:11:32.762Z,130
2018-01-16T10:12:41.552Z,130
2018-01-16T10:13:50.082Z,130
2018-01-16T10:14:59.538Z,125
2018-01-16T10:16:08.926Z,120
2018-01-16T10:17:17.718Z,120
2018-01-16T10:18:26.940Z,115
2018-01-16T10:19:35.731Z,115
2018-01-16T10:20:44.521Z,110
2018-01-16T10:21:53.049Z,105
2018-01-16T10:23:01.846Z,100
2018-01-16T10:24:10.910Z,90
2018-01-16T10:25:19.455Z,90
2018-01-16T10:26:27.989Z,85
2018-01-16T10:27:36.780Z,85
2018-01-16T10:28:45.305Z,85
2018-01-16T10:29:53.830Z,90
2018-01-16T10:31:02.633Z,90
2018-01-16T10:32:11.426Z,90
2018-01-16T10:33:20.749Z,90
2018-01-16T10:34:29.540Z,95
2018-01-16T10:35:38.601Z,95
2018-01-16T10:36:47.134Z,95
2018-01-16T10:37:55.925Z,95
2018-01-16T10:39:04.727Z,100
2018-01-16T10:40:13.523Z,100
2018-01-16T10:41:22.332Z,100
2018-01-16T10:42:31.387Z,105
2018-01-16T10:43:40.450Z,105
2018-01-16T10:44:49.243Z,100
2018-01-16T10:45:57.777Z,100
2018-01-16T10:47:06.566Z,100
2018-01-16T10:48:15.091Z,100
2018-01-16T10:49:24.147Z,100
2018-01-16T10:50:32.675Z,85
2018-01-16T10:51:41.734Z,85
2018-01-16T10:52:50.526Z,90
2018-01-16T10:53:59.327Z,100
2018-01-16T10:55:07.855Z,95
2018-01-16T10:56:16.391Z,105
2018-01-16T10:57:24.921Z,115
2018-01-16T10:58:33.446Z,90
2018-01-16T10:59:42.504Z,90
2018-01-16T11:00:51.030Z,85
2018-01-16T11:02:00.092Z,85
2018-01-16T11:03:08.930Z,85
2018-01-16T11:04:17.689Z,85
2018-01-16T11:05:27.009Z,85
2018-01-16T11:06:35.570Z,90
2018-01-16T11:07:44.629Z,90
2018-01-16T11:08:53.719Z,100
2018-01-16T11:10:02.284Z,100
2018-01-16T11:11:11.041Z,95
2018-01-16T11:12:19.832Z,90
2018-01-16T11:13:28.355Z,90
2018-01-16T11:14:37.413Z,90
2018-01-16T11:15:46.200Z,95
2018-01-16T11:16:55.480Z,95
2018-01-16T11:18:04.578Z,95
2018-01-16T11:19:13.104Z,95
2018-01-16T11:20:21.628Z,95
2018-01-16T11:21:30.697Z,90
2018-01-16T11:22:39.490Z,95
2018-01-16T11:23:48.549Z,105
2018-01-16T11:24:57.355Z,120
2018-01-16T11:26:05.881Z,130
2018-01-16T11:27:14.671Z,125
2018-01-16T11:28:23.486Z,110
2018-01-16T11:29:32.279Z,110
2018-01-16T11:30:40.806Z,110
2018-01-16T11:31:49.381Z,110
2018-01-16T11:32:58.175Z,115
2018-01-16T11:34:06.710Z,110
2018-01-16T11:35:15.237Z,105
2018-01-16T11:36:24.297Z,110
2018-01-16T11:37:33.624Z,110
2018-01-16T11:38:42.153Z,115
2018-01-16T11:39:51.210Z,135
2018-01-16T11:40:59.999Z,130
2018-01-16T11:42:08.788Z,120
2018-01-16T11:43:18.413Z,105
2018-01-16T11:44:27.522Z,105
2018-01-16T11:45:36.015Z,110
2018-01-16T11:46:44.542Z,110
2018-01-16T11:47:53.598Z,110
2018-01-16T11:49:02.393Z,110
2018-01-16T11:50:11.190Z,105
2018-01-16T11:51:19.716Z,105
2018-01-16T11:52:28.513Z,105
2018-01-16T11:53:37.304Z,105
2018-01-16T11:54:45.844Z,105
2018-01-16T11:55:54.635Z,105
2018-01-16T11:57:03.163Z,105
2018-01-16T11:58:11.954Z,105
2018-01-16T11:59:20.745Z,105
2018-01-16T12:00:29.267Z,120
2018-01-16T12:01:38.079Z,110
2018-01-16T12:02:47.184Z,105
2018-01-16T12:03:56.543Z,105
2018-01-16T12:05:05.606Z,105
2018-01-16T12:06:14.138Z,100
2018-01-16T12:07:22.658Z,110
2018-01-16T12:08:31.187Z,115
2018-01-16T12:09:39.981Z,110
2018-01-16T12:10:48.510Z,105
2018-01-16T12:11:57.569Z,105
2018-01-16T12:13:06.400Z,105
2018-01-16T12:14:15.465Z,105
2018-01-16T12:15:24.029Z,105
2018-01-16T12:16:32.820Z,105
2018-01-16T12:17:41.613Z,105
2018-01-16T12:18:50.668Z,105
2018-01-16T12:19:59.194Z,100
2018-01-16T12:21:08.519Z,105
2018-01-16T12:22:17.047Z,105
2018-01-16T12:23:25.845Z,110
2018-01-16T12:24:34.377Z,125
2018-01-16T12:25:43.481Z,125
2018-01-16T12:26:52.813Z,135
2018-01-16T12:28:01.615Z,150
2018-01-16T12:29:10.680Z,100
2018-01-16T12:30:19.466Z,90
2018-01-16T12:31:28.286Z,85
2018-01-16T12:32:37.092Z,75
2018-01-16T12:33:45.886Z,75
2018-01-16T12:34:54.950Z,75
2018-01-16T12:36:03.489Z,80
2018-01-16T12:37:12.058Z,80
2018-01-16T12:38:21.119Z,80
2018-01-16T12:39:30.176Z,95
2018-01-16T12:40:39.230Z,130
2018-01-16T12:41:48.023Z,140
2018-01-16T12:42:56.860Z,115
2018-01-16T12:44:05.659Z,120
2018-01-16T12:45:14.223Z,160
2018-01-16T12:46:22.749Z,195
2018-01-16T12:47:31.820Z,215
2018-01-16T12:48:40.614Z,240
2018-01-16T12:49:49.409Z,270
2018-01-16T12:50:58.478Z,275
2018-01-16T12:52:07.283Z,280
2018-01-16T12:53:16.354Z,295
2018-01-16T12:54:25.163Z,215
2018-01-16T12:55:33.970Z,225
2018-01-16T12:56:43.043Z,225
2018-01-16T12:57:51.596Z,155
2018-01-16T12:59:00.411Z,225
2018-01-16T13:00:09.475Z,255
2018-01-16T13:01:18.278Z,330
2018-01-16T13:02:27.085Z,295
2018-01-16T13:03:35.891Z,305
2018-01-16T13:04:44.759Z,240
2018-01-16T13:05:53.586Z,135
2018-01-16T13:07:02.662Z,100
2018-01-16T13:08:11.206Z,70
2018-01-16T13:09:20.006Z,45
2018-01-16T13:10:29.062Z,90
2018-01-16T13:11:37.863Z,95
2018-01-16T13:12:46.671Z,70
2018-01-16T13:13:55.741Z,50
2018-01-16T13:15:04.552Z,35
2018-01-16T13:16:13.089Z,25
2018-01-16T13:17:21.880Z,20
2018-01-16T13:18:30.672Z,15
2018-01-16T13:19:39.579Z,25
2018-01-16T13:20:48.371Z,15
2018-01-16T13:21:56.905Z,10
2018-01-16T13:23:05.438Z,15
2018-01-16T13:24:14.234Z,15
2018-01-16T13:25:22.763Z,15
2018-01-16T13:26:31.822Z,15
2018-01-16T13:27:40.615Z,15
2018-01-16T13:28:49.265Z,15
2018-01-16T13:29:58.335Z,15
2018-01-16T13:31:07.142Z,20
2018-01-16T13:32:15.676Z,25
2018-01-16T13:33:24.202Z,50
2018-01-16T13:34:32.735Z,70
2018-01-16T13:35:41.534Z,100
2018-01-16T13:36:50.069Z,145
2018-01-16T13:37:58.861Z,190
2018-01-16T13:39:07.920Z,200
2018-01-16T13:40:16.450Z,190
2018-01-16T13:41:26.040Z,170
2018-01-16T13:42:34.825Z,170
2018-01-16T13:43:43.615Z,205
2018-01-16T13:44:52.403Z,180
2018-01-16T13:46:00.930Z,140
2018-01-16T13:47:09.726Z,110
2018-01-16T13:48:18.254Z,110
2018-01-16T13:49:27.075Z,145
2018-01-16T13:50:35.866Z,160
2018-01-16T13:51:44.949Z,110
2018-01-16T13:52:54.015Z,100
2018-01-16T13:54:03.812Z,110
2018-01-16T13:55:12.636Z,120
2018-01-16T13:56:21.429Z,155
2018-01-16T13:57:29.961Z,200
2018-01-16T13:58:39.018Z,190
2018-01-16T13:59:47.826Z,150
2018-01-16T14:00:56.616Z,125
2018-01-16T14:02:05.145Z,130
2018-01-16T14:03:46.006Z,120
2018-01-16T14:04:54.531Z,105
2018-01-16T14:06:03.061Z,100
2018-01-16T14:07:11.855Z,90
2018-01-16T14:08:20.398Z,65
2018-01-16T14:09:29.194Z,90
2018-01-16T14:10:37.722Z,115
2018-01-16T14:11:46.257Z,95
2018-01-16T14:12:55.064Z,85
2018-01-16T14:14:03.864Z,85
2018-01-16T14:15:12.711Z,95
2018-01-16T14:16:21.242Z,95
2018-01-16T14:17:30.306Z,100
2018-01-16T14:18:39.102Z,105
2018-01-16T14:19:48.168Z,85
2018-01-16T14:20:57.017Z,75
2018-01-16T14:22:05.817Z,75
2018-01-16T14:23:14.921Z,80
2018-01-16T14:24:23.734Z,95
2018-01-16T14:25:32.857Z,100
2018-01-16T14:26:41.390Z,110
2018-01-16T14:27:50.461Z,105
2018-01-16T14:28:59.522Z,110
2018-01-16T14:30:08.083Z,120
2018-01-16T14:31:17.141Z,110
2018-01-16T14:32:25.673Z,85
2018-01-16T14:33:34.464Z,75
2018-01-16T14:34:43.256Z,75
2018-01-16T14:35:52.053Z,75
2018-01-16T14:37:00.583Z,75
2018-01-16T14:38:09.152Z,75
2018-01-16T14:39:17.678Z,70
2018-01-16T14:40:26.471Z,70
2018-01-16T14:41:35.281Z,65
2018-01-16T14:42:44.337Z,65
2018-01-16T14:43:53.406Z,65
2018-01-16T14:45:02.469Z,65
2018-01-16T14:46:11.264Z,60
2018-01-16T14:47:20.054Z,60
2018-01-16T14:48:28.583Z,60
2018-01-16T14:49:37.205Z,55
2018-01-16T14:50:46.000Z,55
2018-01-16T14:51:55.095Z,55
2018-01-16T14:53:04.161Z,55
2018-01-16T14:54:12.952Z,55
2018-01-16T14:55:21.488Z,55
2018-01-16T14:56:30.019Z,55
2018-01-16T14:57:38.542Z,55
2018-01-16T14:58:47.632Z,55
2018-01-16T14:59:56.437Z,50
2018-01-16T15:01:04.991Z,50
2018-01-16T15:02:13.831Z,50
2018-01-16T15:03:22.633Z,50
2018-01-16T15:04:31.160Z,50
2018-01-16T15:05:40.550Z,45
2018-01-16T15:06:49.913Z,35
2018-01-16T15:07:58.454Z,35
2018-01-16T15:09:06.978Z,35
2018-01-16T15:10:15.771Z,35
2018-01-16T15:11:24.563Z,35
2018-01-16T15:12:33.354Z,35
2018-01-16T15:13:42.147Z,35
2018-01-16T15:14:51.205Z,35
2018-01-16T15:15:59.996Z,30
2018-01-16T15:17:09.060Z,30
2018-01-16T15:18:18.121Z,30
2018-01-16T15:19:27.176Z,30
2018-01-16T15:20:35.969Z,30
2018-01-16T15:21:45.028Z,30
2018-01-16T15:22:53.825Z,25
2018-01-16T15:24:02.349Z,20
2018-01-16T15:25:11.142Z,15
2018-01-16T15:26:19.942Z,15
2018-01-16T15:27:28.886Z,15
2018-01-16T15:28:37.949Z,10
2018-01-16T15:29:46.741Z,10
2018-01-16T15:30:55.536Z,10
2018-01-16T15:32:04.591Z,10
2018-01-16T15:33:13.380Z,5
2018-01-16T15:34:22.436Z,5
2018-01-16T15:35:31.226Z,5
2018-01-16T15:36:40.016Z,5
2018-01-16T15:37:49.347Z,5
2018-01-16T15:38:57.890Z,5
2018-01-16T15:40:06.417Z,10
2018-01-16T15:41:15.476Z,5
2018-01-16T15:42:24.270Z,10
2018-01-16T15:43:33.334Z,10
2018-01-16T15:44:42.131Z,10
2018-01-16T15:45:50.662Z,10
2018-01-16T15:46:59.190Z,10
2018-01-16T15:48:08.264Z,10
2018-01-16T15:49:17.056Z,10
2018-01-16T15:50:26.116Z,10
2018-01-16T15:51:34.644Z,10
2018-01-16T15:52:43.174Z,5
2018-01-16T15:53:52.502Z,5
2018-01-16T15:55:01.028Z,5
2018-01-16T15:56:09.555Z,5
2018-01-16T15:57:18.347Z,5
2018-01-16T15:58:27.147Z,5
2018-01-16T15:59:35.946Z,5
2018-01-16T16:00:44.470Z,5
2018-01-16T16:01:53.263Z,0
2018-01-16T16:03:02.110Z,0
2018-01-16T16:04:11.167Z,0
2018-01-16T16:05:19.690Z,0
2018-01-16T16:06:28.483Z,0
2018-01-16T16:07:37.278Z,0
2018-01-16T16:08:46.072Z,0
2018-01-16T16:09:55.131Z,0
